Time;durP1;ratioP1;P1;durP2;ratioP2;P2;SDS_P1;SDS_P2;PMS_P1;PMS_P2;Temp;Humidity;BMP_temperature;BMP_pressure;BME280_temperature;BME280_humidity;BME280_pressure;Samples;Min_cycle;Max_cycle;Signal;HPM_P1;HPM_P2
2023/12/06 00:00:03;;;;;;;1.87;1.80;;;;;;;;;;5029191;28;20211;-61
2023/12/06 00:02:32;;;;;;;2.00;1.97;;;;;;;;;;5037175;28;20220;-60
2023/12/06 00:05:00;;;;;;;1.80;1.80;;;;;;;;;;5034968;28;20318;-60
2023/12/06 00:07:28;;;;;;;2.47;2.37;;;;;;;;;;5030932;28;20629;-61
2023/12/06 00:09:55;;;;;;;2.60;2.50;;;;;;;;;;5027296;28;20224;-61
2023/12/06 00:12:22;;;;;;;2.53;2.33;;;;;;;;;;5029229;28;20242;-61
2023/12/06 00:14:49;;;;;;;2.90;2.70;;;;;;;;;;5034074;28;20200;-60
2023/12/06 00:17:16;;;;;;;3.10;2.10;;;;;;;;;;5036753;28;20281;-61
2023/12/06 00:19:43;;;;;;;1.80;1.80;;;;;;;;;;5033719;28;20210;-61
2023/12/06 00:22:10;;;;;;;2.00;1.90;;;;;;;;;;5033982;28;20680;-61
2023/12/06 00:24:38;;;;;;;2.00;1.90;;;;;;;;;;5033845;28;20651;-60
2023/12/06 00:27:06;;;;;;;1.70;1.60;;;;;;;;;;5032062;28;20298;-61
2023/12/06 00:29:33;;;;;;;1.83;1.73;;;;;;;;;;5027617;28;20231;-60
2023/12/06 00:32:00;;;;;;;1.47;1.47;;;;;;;;;;5027633;28;20247;-61
2023/12/06 00:34:27;;;;;;;1.77;1.67;;;;;;;;;;5030428;28;20261;-61
2023/12/06 00:36:54;;;;;;;2.07;1.63;;;;;;;;;;5033548;28;20217;-60
2023/12/06 00:39:21;;;;;;;1.33;1.33;;;;;;;;;;5030583;28;20253;-61
2023/12/06 00:41:49;;;;;;;2.20;1.43;;;;;;;;;;5035595;28;20215;-60
2023/12/06 00:44:16;;;;;;;1.40;1.40;;;;;;;;;;5031366;28;20509;-60
2023/12/06 00:46:43;;;;;;;1.67;1.67;;;;;;;;;;5025664;28;20278;-61
2023/12/06 00:49:11;;;;;;;1.70;1.60;;;;;;;;;;5034482;28;20231;-61
2023/12/06 00:51:38;;;;;;;1.87;1.77;;;;;;;;;;5037440;28;20213;-61
2023/12/06 00:54:05;;;;;;;2.07;1.97;;;;;;;;;;5027858;28;20212;-61
2023/12/06 00:56:32;;;;;;;1.50;1.50;;;;;;;;;;5036291;28;20230;-60
2023/12/06 00:59:01;;;;;;;1.50;1.50;;;;;;;;;;5044164;28;20396;-61
2023/12/06 01:01:28;;;;;;;2.57;1.83;;;;;;;;;;5044995;28;20211;-61
2023/12/06 01:03:55;;;;;;;6.63;2.03;;;;;;;;;;5043469;28;20204;-60
2023/12/06 01:06:22;;;;;;;1.73;1.63;;;;;;;;;;5029790;28;20245;-60
2023/12/06 01:08:49;;;;;;;2.67;1.80;;;;;;;;;;5044276;28;20210;-60
2023/12/06 01:11:16;;;;;;;1.87;1.77;;;;;;;;;;5039365;28;20212;-62
2023/12/06 01:13:44;;;;;;;1.40;1.40;;;;;;;;;;5043873;28;20582;-61
2023/12/06 01:16:12;;;;;;;4.23;1.80;;;;;;;;;;5042241;28;20241;-61
2023/12/06 01:18:39;;;;;;;1.53;1.53;;;;;;;;;;5043623;28;20214;-62
2023/12/06 01:21:06;;;;;;;1.53;1.53;;;;;;;;;;5028255;28;20214;-62
2023/12/06 01:23:32;;;;;;;1.40;1.40;;;;;;;;;;5026722;28;20673;-61
2023/12/06 01:25:59;;;;;;;1.50;1.50;;;;;;;;;;5026277;28;20207;-61
2023/12/06 01:28:26;;;;;;;1.93;1.83;;;;;;;;;;5026795;28;20213;-61
2023/12/06 01:30:53;;;;;;;1.77;1.77;;;;;;;;;;5043784;28;20229;-61
2023/12/06 01:33:22;;;;;;;2.20;2.10;;;;;;;;;;5045013;28;20219;-62
2023/12/06 01:35:49;;;;;;;1.80;1.80;;;;;;;;;;5033403;28;20290;-61
2023/12/06 01:38:16;;;;;;;1.50;1.50;;;;;;;;;;5028490;28;20214;-61
2023/12/06 01:40:44;;;;;;;1.80;1.70;;;;;;;;;;5028414;28;20195;-61
2023/12/06 01:43:11;;;;;;;1.90;1.77;;;;;;;;;;5045798;28;20543;-61
2023/12/06 01:45:38;;;;;;;1.60;1.60;;;;;;;;;;5039714;28;20298;-62
2023/12/06 01:48:05;;;;;;;1.57;1.57;;;;;;;;;;5025904;28;20204;-61
2023/12/06 01:50:34;;;;;;;1.93;1.83;;;;;;;;;;5044320;28;20254;-61
2023/12/06 01:53:04;;;;;;;2.13;1.57;;;;;;;;;;5045578;28;20681;-61
2023/12/06 01:55:31;;;;;;;1.67;1.57;;;;;;;;;;5045015;28;20669;-61
2023/12/06 01:57:58;;;;;;;1.70;1.60;;;;;;;;;;5044157;28;20211;-61
2023/12/06 02:00:26;;;;;;;1.30;1.30;;;;;;;;;;5045523;28;20342;-61
2023/12/06 02:02:53;;;;;;;1.70;1.60;;;;;;;;;;5043945;28;20568;-62
2023/12/06 02:05:21;;;;;;;1.83;1.73;;;;;;;;;;5045289;28;20728;-61
2023/12/06 02:07:50;;;;;;;1.40;1.40;;;;;;;;;;5041794;28;20203;-62
2023/12/06 02:10:17;;;;;;;2.03;1.93;;;;;;;;;;5040926;28;20228;-62
2023/12/06 02:12:44;;;;;;;1.83;1.73;;;;;;;;;;5042752;28;20207;-62
2023/12/06 02:15:12;;;;;;;4.57;2.27;;;;;;;;;;5044813;28;20211;-61
2023/12/06 02:17:40;;;;;;;1.90;1.80;;;;;;;;;;5042596;28;20341;-62
2023/12/06 02:20:07;;;;;;;2.07;1.97;;;;;;;;;;5043095;28;20312;-61
2023/12/06 02:25:39;;;;;;;1.90;1.80;;;;;;;;;;5028931;28;20252;-61
2023/12/06 02:28:06;;;;;;;1.63;1.63;;;;;;;;;;5038490;28;20243;-61
2023/12/06 02:30:33;;;;;;;1.60;1.50;;;;;;;;;;5038485;28;20265;-61
2023/12/06 02:33:00;;;;;;;1.80;1.70;;;;;;;;;;5039449;28;20353;-61
2023/12/06 02:35:30;;;;;;;2.07;1.97;;;;;;;;;;5036000;28;20605;-61
2023/12/06 02:37:57;;;;;;;1.97;1.87;;;;;;;;;;5031008;28;20266;-61
2023/12/06 02:40:25;;;;;;;1.63;1.63;;;;;;;;;;5043151;28;20204;-61
2023/12/06 02:42:53;;;;;;;1.97;1.80;;;;;;;;;;5047736;28;20214;-61
2023/12/06 02:45:20;;;;;;;1.60;1.60;;;;;;;;;;5044880;28;20270;-61
2023/12/06 02:47:47;;;;;;;1.60;1.60;;;;;;;;;;5043544;28;20739;-61
2023/12/06 02:50:14;;;;;;;1.80;1.80;;;;;;;;;;5035174;28;20219;-61
2023/12/06 02:52:41;;;;;;;2.00;1.83;;;;;;;;;;5028959;28;20210;-61
2023/12/06 02:55:08;;;;;;;1.90;1.80;;;;;;;;;;5033676;28;20215;-61
2023/12/06 02:57:35;;;;;;;1.90;1.80;;;;;;;;;;5043089;28;20207;-61
2023/12/06 03:00:05;;;;;;;2.47;2.33;;;;;;;;;;5030296;28;20201;-61
2023/12/06 03:02:32;;;;;;;2.17;2.07;;;;;;;;;;5027961;28;20303;-61
2023/12/06 03:04:59;;;;;;;2.67;2.23;;;;;;;;;;5028557;28;20200;-62
2023/12/06 03:07:26;;;;;;;2.40;2.23;;;;;;;;;;5027876;28;20270;-61
2023/12/06 03:09:53;;;;;;;7.03;2.20;;;;;;;;;;5041217;28;20223;-61
2023/12/06 03:12:20;;;;;;;2.87;2.67;;;;;;;;;;5047341;28;20553;-61
2023/12/06 03:14:47;;;;;;;2.33;2.23;;;;;;;;;;5043152;28;20203;-61
2023/12/06 03:17:15;;;;;;;2.97;2.80;;;;;;;;;;5047141;28;20242;-62
2023/12/06 03:19:42;;;;;;;2.37;2.27;;;;;;;;;;5042358;28;20209;-59
2023/12/06 03:22:09;;;;;;;3.30;2.60;;;;;;;;;;5037102;28;20297;-59
2023/12/06 03:24:36;;;;;;;3.53;3.23;;;;;;;;;;5046408;28;20273;-59
2023/12/06 03:27:03;;;;;;;3.40;3.20;;;;;;;;;;5047410;28;20616;-59
2023/12/06 03:29:30;;;;;;;3.50;3.20;;;;;;;;;;5046474;28;20245;-59
2023/12/06 03:31:57;;;;;;;4.00;3.60;;;;;;;;;;5043842;28;20288;-59
2023/12/06 03:34:26;;;;;;;3.87;3.57;;;;;;;;;;5027716;28;20211;-60
2023/12/06 03:36:53;;;;;;;3.47;3.17;;;;;;;;;;5038269;28;20296;-59
2023/12/06 03:39:20;;;;;;;4.43;4.03;;;;;;;;;;5027495;28;20643;-59
2023/12/06 03:41:47;;;;;;;4.43;3.70;;;;;;;;;;5035021;28;20211;-60
2023/12/06 03:44:14;;;;;;;6.40;3.60;;;;;;;;;;5044121;28;20204;-59
2023/12/06 03:46:41;;;;;;;4.80;4.40;;;;;;;;;;5044797;28;20207;-58
2023/12/06 03:49:08;;;;;;;4.20;3.90;;;;;;;;;;5044661;28;20281;-59
2023/12/06 03:51:37;;;;;;;5.20;4.23;;;;;;;;;;5028214;28;20266;-59
2023/12/06 03:54:04;;;;;;;4.50;4.10;;;;;;;;;;5026632;28;20212;-59
2023/12/06 03:56:31;;;;;;;6.83;4.37;;;;;;;;;;5035032;28;20211;-60
2023/12/06 03:58:58;;;;;;;4.30;4.00;;;;;;;;;;5045311;28;20927;-59
2023/12/06 04:01:25;;;;;;;5.30;4.47;;;;;;;;;;5046682;28;20266;-59
2023/12/06 04:03:52;;;;;;;4.13;3.83;;;;;;;;;;5046201;28;20203;-59
2023/12/06 04:06:19;;;;;;;4.43;4.03;;;;;;;;;;5045989;28;20222;-59
2023/12/06 04:08:48;;;;;;;4.67;4.07;;;;;;;;;;5043289;28;20698;-59
2023/12/06 04:11:15;;;;;;;4.20;3.80;;;;;;;;;;5044787;28;20219;-59
2023/12/06 04:13:42;;;;;;;4.83;4.37;;;;;;;;;;5044508;28;20211;-59
2023/12/06 04:16:09;;;;;;;5.43;4.93;;;;;;;;;;5029287;28;20247;-59
2023/12/06 04:18:36;;;;;;;4.53;4.13;;;;;;;;;;5045891;28;20265;-59
2023/12/06 04:21:03;;;;;;;5.00;4.50;;;;;;;;;;5027836;28;20207;-59
2023/12/06 04:23:30;;;;;;;5.60;4.27;;;;;;;;;;5029342;28;20216;-59
2023/12/06 04:25:59;;;;;;;5.37;4.43;;;;;;;;;;5030249;28;20291;-58
2023/12/06 04:28:26;;;;;;;7.13;4.77;;;;;;;;;;5027336;28;20754;-59
2023/12/06 04:30:53;;;;;;;5.23;4.73;;;;;;;;;;5028058;28;20243;-59
2023/12/06 04:33:20;;;;;;;6.47;4.70;;;;;;;;;;5045733;28;20230;-60
2023/12/06 04:35:47;;;;;;;5.10;4.70;;;;;;;;;;5043305;28;20591;-60
2023/12/06 04:38:14;;;;;;;4.80;4.40;;;;;;;;;;5036270;28;20207;-59
2023/12/06 04:40:41;;;;;;;5.13;4.63;;;;;;;;;;5041390;28;20447;-59
2023/12/06 04:43:09;;;;;;;9.07;4.90;;;;;;;;;;5026499;28;20204;-59
2023/12/06 04:45:37;;;;;;;5.70;5.10;;;;;;;;;;5027151;28;20690;-59
2023/12/06 04:48:04;;;;;;;5.67;4.90;;;;;;;;;;5043976;28;20692;-59
2023/12/06 04:50:31;;;;;;;5.40;4.90;;;;;;;;;;5043273;28;20224;-59
2023/12/06 04:52:58;;;;;;;4.90;4.50;;;;;;;;;;5045443;28;20204;-59
2023/12/06 04:55:25;;;;;;;5.57;4.03;;;;;;;;;;5046354;28;20207;-59
2023/12/06 04:57:52;;;;;;;5.17;4.73;;;;;;;;;;5045231;28;20856;-59
2023/12/06 05:00:21;;;;;;;4.47;4.07;;;;;;;;;;5042083;28;20199;-60
2023/12/06 05:02:49;;;;;;;4.80;3.97;;;;;;;;;;5043542;28;20228;-59
2023/12/06 05:05:16;;;;;;;5.07;4.57;;;;;;;;;;5033493;28;20208;-59
2023/12/06 05:07:43;;;;;;;4.53;4.23;;;;;;;;;;5045924;28;20208;-59
2023/12/06 05:10:10;;;;;;;5.67;4.67;;;;;;;;;;5034212;28;20201;-59
2023/12/06 05:12:37;;;;;;;4.97;4.53;;;;;;;;;;5025425;28;20211;-59
2023/12/06 05:15:06;;;;;;;7.73;4.60;;;;;;;;;;5025890;28;20212;-59
2023/12/06 05:17:34;;;;;;;4.83;4.30;;;;;;;;;;5040897;28;20271;-59
2023/12/06 05:20:01;;;;;;;7.17;4.50;;;;;;;;;;5045877;28;20218;-59
2023/12/06 05:22:28;;;;;;;5.00;4.43;;;;;;;;;;5034069;28;20205;-59
2023/12/06 05:24:55;;;;;;;4.57;4.17;;;;;;;;;;5034880;28;20207;-59
2023/12/06 05:27:22;;;;;;;5.97;4.40;;;;;;;;;;5045641;28;20221;-59
2023/12/06 05:29:49;;;;;;;4.60;4.20;;;;;;;;;;5030589;28;20204;-59
2023/12/06 05:32:16;;;;;;;4.80;4.30;;;;;;;;;;5025895;28;20239;-59
2023/12/06 05:34:44;;;;;;;4.97;4.43;;;;;;;;;;5025442;28;20424;-59
2023/12/06 05:37:12;;;;;;;5.93;4.70;;;;;;;;;;5025767;28;20666;-59
2023/12/06 05:39:39;;;;;;;4.90;4.43;;;;;;;;;;5025555;28;20208;-59
2023/12/06 05:42:06;;;;;;;4.50;4.00;;;;;;;;;;5039911;28;20208;-59
2023/12/06 05:44:33;;;;;;;5.90;4.57;;;;;;;;;;5043812;28;20203;-59
2023/12/06 05:47:01;;;;;;;5.57;5.03;;;;;;;;;;5045225;28;20223;-59
2023/12/06 05:49:28;;;;;;;5.60;4.90;;;;;;;;;;5045212;28;20211;-59
2023/12/06 05:51:56;;;;;;;5.30;4.77;;;;;;;;;;5044926;28;20609;-59
2023/12/06 05:54:23;;;;;;;5.70;4.60;;;;;;;;;;5045658;28;20234;-59
2023/12/06 05:56:50;;;;;;;5.20;4.70;;;;;;;;;;5045299;28;20196;-59
2023/12/06 05:59:17;;;;;;;4.37;3.97;;;;;;;;;;5045856;28;20214;-59
2023/12/06 06:01:44;;;;;;;5.03;4.07;;;;;;;;;;5047127;28;20202;-59
2023/12/06 06:04:11;;;;;;;4.43;4.03;;;;;;;;;;5036245;28;20219;-59
2023/12/06 06:06:38;;;;;;;4.13;3.73;;;;;;;;;;5041658;28;20680;-59
2023/12/06 06:09:06;;;;;;;577.73;292.30;;;;;;;;;;5040147;28;20204;-58
2023/12/06 06:11:33;;;;;;;167.97;70.13;;;;;;;;;;5036916;28;20228;-59
2023/12/06 06:14:01;;;;;;;12.17;8.03;;;;;;;;;;5039704;28;20208;-59
2023/12/06 06:16:28;;;;;;;5.77;5.10;;;;;;;;;;5036148;28;20235;-58
2023/12/06 06:18:55;;;;;;;4.50;4.07;;;;;;;;;;5039645;28;20667;-59
2023/12/06 06:21:22;;;;;;;5.80;4.93;;;;;;;;;;5038773;28;20219;-58
2023/12/06 06:23:49;;;;;;;7.50;4.37;;;;;;;;;;5038691;28;20208;-59
2023/12/06 06:26:17;;;;;;;6.43;4.57;;;;;;;;;;5035544;28;20204;-59
2023/12/06 06:28:44;;;;;;;4.60;4.20;;;;;;;;;;5037649;28;20214;-58
2023/12/06 06:31:11;;;;;;;4.77;4.37;;;;;;;;;;5035004;28;20870;-59
2023/12/06 06:33:38;;;;;;;5.57;4.30;;;;;;;;;;5034937;28;20211;-58
2023/12/06 06:36:06;;;;;;;5.13;4.30;;;;;;;;;;5038175;28;20211;-59
2023/12/06 06:38:33;;;;;;;4.33;3.87;;;;;;;;;;5036376;28;20204;-59
2023/12/06 06:41:00;;;;;;;6.00;3.97;;;;;;;;;;5036974;28;20256;-59
2023/12/06 06:43:28;;;;;;;4.70;4.30;;;;;;;;;;5036153;28;20214;-59
2023/12/06 06:45:55;;;;;;;6.63;4.77;;;;;;;;;;5035706;28;20207;-59
2023/12/06 06:48:22;;;;;;;4.40;3.97;;;;;;;;;;5037724;28;20208;-59
2023/12/06 06:50:49;;;;;;;5.63;4.40;;;;;;;;;;5048212;28;20258;-59
2023/12/06 06:53:16;;;;;;;5.87;4.97;;;;;;;;;;5041216;28;20754;-58
2023/12/06 06:55:44;;;;;;;7.90;5.03;;;;;;;;;;5030129;28;20219;-59
2023/12/06 06:58:11;;;;;;;6.43;5.00;;;;;;;;;;5040587;28;20236;-59
2023/12/06 07:00:40;;;;;;;6.03;4.23;;;;;;;;;;5031322;28;20200;-59
2023/12/06 07:03:07;;;;;;;7.37;4.30;;;;;;;;;;5045455;28;20983;-59
2023/12/06 07:05:34;;;;;;;5.60;4.47;;;;;;;;;;5034305;28;20211;-59
2023/12/06 07:08:01;;;;;;;4.53;4.10;;;;;;;;;;5039554;28;20220;-59
2023/12/06 07:10:29;;;;;;;5.03;4.33;;;;;;;;;;5032180;28;20614;-59
2023/12/06 07:12:56;;;;;;;6.20;4.10;;;;;;;;;;5035343;28;20230;-59
2023/12/06 07:15:25;;;;;;;5.97;4.87;;;;;;;;;;5034979;28;20207;-59
2023/12/06 07:17:53;;;;;;;6.10;5.07;;;;;;;;;;5034778;28;20244;-59
2023/12/06 07:20:21;;;;;;;7.53;5.33;;;;;;;;;;5039273;28;20213;-59
2023/12/06 07:22:49;;;;;;;5.53;4.70;;;;;;;;;;5038393;28;20199;-59
2023/12/06 07:25:16;;;;;;;5.93;4.70;;;;;;;;;;5039120;28;20215;-62
2023/12/06 07:27:45;;;;;;;7.83;5.13;;;;;;;;;;5033359;28;20214;-62
2023/12/06 07:30:13;;;;;;;5.60;4.83;;;;;;;;;;5036692;28;20310;-61
2023/12/06 07:32:40;;;;;;;6.47;4.93;;;;;;;;;;5042714;28;20229;-62
2023/12/06 07:35:10;;;;;;;4.20;3.83;;;;;;;;;;5044900;28;20215;-61
2023/12/06 07:37:38;;;;;;;6.20;5.17;;;;;;;;;;5033993;28;20235;-62
2023/12/06 07:40:09;;;;;;;5.80;4.77;;;;;;;;;;5045620;28;20203;-60
2023/12/06 07:42:36;;;;;;;5.87;4.77;;;;;;;;;;5032554;28;20751;-61
2023/12/06 07:45:03;;;;;;;7.07;5.40;;;;;;;;;;5035627;28;20208;-62
2023/12/06 07:47:30;;;;;;;6.90;5.23;;;;;;;;;;5033486;28;20211;-62
2023/12/06 07:49:57;;;;;;;6.33;5.00;;;;;;;;;;5047036;28;20211;-62
2023/12/06 07:52:26;;;;;;;6.37;5.20;;;;;;;;;;5046096;28;20708;-61
2023/12/06 07:54:53;;;;;;;7.97;4.97;;;;;;;;;;5041920;28;20320;-60
2023/12/06 07:57:20;;;;;;;6.80;5.50;;;;;;;;;;5046810;28;20206;-61
2023/12/06 07:59:47;;;;;;;6.27;5.13;;;;;;;;;;5046394;28;20212;-61
2023/12/06 08:02:15;;;;;;;6.57;5.07;;;;;;;;;;5032003;28;20310;-61
2023/12/06 08:04:42;;;;;;;6.23;5.63;;;;;;;;;;5046547;28;20207;-61
2023/12/06 08:07:09;;;;;;;7.30;5.40;;;;;;;;;;5046043;28;20246;-62
2023/12/06 08:09:39;;;;;;;7.07;5.40;;;;;;;;;;5045995;28;20227;-61
2023/12/06 08:12:07;;;;;;;8.17;5.50;;;;;;;;;;5046305;28;20231;-61
2023/12/06 08:14:34;;;;;;;6.07;5.30;;;;;;;;;;5046117;28;20222;-61
2023/12/06 08:17:01;;;;;;;6.70;5.30;;;;;;;;;;5045089;28;20804;-61
2023/12/06 08:19:28;;;;;;;7.33;5.07;;;;;;;;;;5046108;28;20211;-61
2023/12/06 08:21:55;;;;;;;7.70;5.47;;;;;;;;;;5044646;28;20202;-61
2023/12/06 08:24:22;;;;;;;8.53;5.87;;;;;;;;;;5034643;28;20238;-60
2023/12/06 08:26:51;;;;;;;8.00;5.57;;;;;;;;;;5026427;28;20235;-61
2023/12/06 08:29:18;;;;;;;5.93;5.33;;;;;;;;;;5026229;28;20212;-61
2023/12/06 08:31:46;;;;;;;7.77;5.37;;;;;;;;;;5025788;28;20235;-61
2023/12/06 08:34:13;;;;;;;7.00;5.37;;;;;;;;;;5041784;28;20687;-59
2023/12/06 08:36:40;;;;;;;5.73;4.97;;;;;;;;;;5045911;28;20207;-59
2023/12/06 08:39:07;;;;;;;5.90;5.30;;;;;;;;;;5045733;28;20216;-60
2023/12/06 08:41:36;;;;;;;6.10;5.37;;;;;;;;;;5046050;28;20296;-60
2023/12/06 08:44:07;;;;;;;6.13;5.23;;;;;;;;;;5045966;28;20207;-59
2023/12/06 08:46:34;;;;;;;8.37;5.90;;;;;;;;;;5045688;28;20204;-60
2023/12/06 08:49:01;;;;;;;7.87;5.97;;;;;;;;;;5045152;28;20868;-60
2023/12/06 08:51:28;;;;;;;10.27;6.37;;;;;;;;;;5045667;28;20709;-60
2023/12/06 08:53:56;;;;;;;7.60;5.73;;;;;;;;;;5045208;28;20259;-60
2023/12/06 08:56:23;;;;;;;8.00;6.13;;;;;;;;;;5044845;28;20737;-60
2023/12/06 08:58:50;;;;;;;7.87;5.90;;;;;;;;;;5031206;28;20218;-60
2023/12/06 09:01:18;;;;;;;13.07;6.87;;;;;;;;;;5041478;28;20215;-59
2023/12/06 09:03:45;;;;;;;7.97;6.13;;;;;;;;;;5041159;28;20295;-59
2023/12/06 09:06:12;;;;;;;11.00;6.67;;;;;;;;;;5043049;28;20213;-59
2023/12/06 09:08:39;;;;;;;10.90;6.03;;;;;;;;;;5043365;28;20200;-59
2023/12/06 09:11:07;;;;;;;14.33;9.03;;;;;;;;;;5044606;28;20213;-59
2023/12/06 09:13:34;;;;;;;18.30;10.17;;;;;;;;;;5044622;28;20670;-59
2023/12/06 09:16:01;;;;;;;14.03;9.60;;;;;;;;;;5043231;28;20243;-60
2023/12/06 09:18:30;;;;;;;10.73;7.60;;;;;;;;;;5038126;28;20218;-59
2023/12/06 09:20:57;;;;;;;9.10;6.90;;;;;;;;;;5043337;28;20234;-59
2023/12/06 09:23:24;;;;;;;10.17;7.17;;;;;;;;;;5042095;28;20203;-60
2023/12/06 09:25:51;;;;;;;11.13;7.37;;;;;;;;;;5036005;28;20210;-60
2023/12/06 09:28:18;;;;;;;10.00;6.87;;;;;;;;;;5031486;28;20203;-60
2023/12/06 09:30:45;;;;;;;9.20;6.57;;;;;;;;;;5042708;28;20199;-60
2023/12/06 09:33:12;;;;;;;9.57;6.97;;;;;;;;;;5044325;28;20235;-60
2023/12/06 09:35:41;;;;;;;10.90;8.17;;;;;;;;;;5046648;28;20199;-60
2023/12/06 09:38:08;;;;;;;16.67;10.93;;;;;;;;;;5048756;28;20290;-60
2023/12/06 09:40:35;;;;;;;40.63;23.70;;;;;;;;;;5048747;28;20685;-60
2023/12/06 09:43:03;;;;;;;62.23;32.40;;;;;;;;;;5047298;28;20199;-60
2023/12/06 09:45:31;;;;;;;39.03;20.67;;;;;;;;;;5048357;28;20214;-60
2023/12/06 09:47:58;;;;;;;56.87;29.97;;;;;;;;;;5048608;28;20214;-60
2023/12/06 09:50:26;;;;;;;23.10;14.23;;;;;;;;;;5048410;28;20582;-60
2023/12/06 09:52:55;;;;;;;22.60;13.27;;;;;;;;;;5048136;28;20250;-60
2023/12/06 09:55:23;;;;;;;17.23;11.80;;;;;;;;;;5047638;28;20235;-64
2023/12/06 09:57:51;;;;;;;11.13;7.50;;;;;;;;;;5048700;28;20216;-59
2023/12/06 10:00:18;;;;;;;18.63;11.90;;;;;;;;;;5048183;28;20683;-60
2023/12/06 10:02:50;;;;;;;28.93;15.33;;;;;;;;;;5047765;28;20208;-63
2023/12/06 10:05:17;;;;;;;22.87;11.80;;;;;;;;;;5047944;28;20208;-60
2023/12/06 10:07:44;;;;;;;16.17;10.70;;;;;;;;;;5036603;28;20212;-60
2023/12/06 10:10:15;;;;;;;11.73;9.70;;;;;;;;;;5048364;28;20211;-61
2023/12/06 10:12:48;;;;;;;10.13;8.20;;;;;;;;;;5043499;28;20236;-59
2023/12/06 10:15:16;;;;;;;10.23;7.97;;;;;;;;;;5037771;28;20209;-60
2023/12/06 10:17:44;;;;;;;8.07;7.23;;;;;;;;;;5025523;28;20240;-60
2023/12/06 10:20:11;;;;;;;8.27;6.93;;;;;;;;;;5030253;28;20208;-59
2023/12/06 10:22:38;;;;;;;8.67;6.57;;;;;;;;;;5032233;28;20204;-59
2023/12/06 10:25:06;;;;;;;8.50;6.60;;;;;;;;;;5045765;28;20262;-60
2023/12/06 10:27:34;;;;;;;9.60;6.83;;;;;;;;;;5046191;28;20269;-60
2023/12/06 10:30:01;;;;;;;11.83;7.93;;;;;;;;;;5045895;28;20204;-60
2023/12/06 10:32:30;;;;;;;11.07;8.03;;;;;;;;;;5034368;28;20273;-60
2023/12/06 10:34:59;;;;;;;8.10;6.93;;;;;;;;;;5045896;28;20215;-59
2023/12/06 10:37:26;;;;;;;14.00;9.40;;;;;;;;;;5045408;28;20219;-59
2023/12/06 10:39:55;;;;;;;11.40;8.23;;;;;;;;;;5044758;28;20214;-60
2023/12/06 10:42:26;;;;;;;11.37;8.10;;;;;;;;;;5045332;28;20413;-60
2023/12/06 10:44:56;;;;;;;9.10;7.10;;;;;;;;;;5045577;28;20238;-60
2023/12/06 10:47:24;;;;;;;8.37;6.93;;;;;;;;;;5044311;28;20211;-59
2023/12/06 10:49:52;;;;;;;9.17;6.40;;;;;;;;;;5045161;28;20666;-59
2023/12/06 10:52:19;;;;;;;9.37;6.57;;;;;;;;;;5044902;28;20227;-60
2023/12/06 10:54:47;;;;;;;7.77;6.33;;;;;;;;;;5045544;28;20211;-60
2023/12/06 10:57:15;;;;;;;8.07;6.17;;;;;;;;;;5045437;28;20221;-60
2023/12/06 10:59:44;;;;;;;8.17;6.37;;;;;;;;;;5043645;28;20772;-60
2023/12/06 11:02:13;;;;;;;7.77;5.60;;;;;;;;;;5042103;28;20199;-60
2023/12/06 11:04:41;;;;;;;8.57;5.77;;;;;;;;;;5046666;28;20204;-60
2023/12/06 11:07:13;;;;;;;7.60;6.40;;;;;;;;;;5047490;28;20207;-60
2023/12/06 11:09:45;;;;;;;6.37;5.77;;;;;;;;;;5047548;28;20203;-60
2023/12/06 11:12:18;;;;;;;7.60;5.87;;;;;;;;;;5039588;28;20642;-60
2023/12/06 11:15:02;;;;;;;6.40;5.80;;;;;;;;;;5044416;28;20666;-60
2023/12/06 11:17:38;;;;;;;7.03;5.63;;;;;;;;;;5044867;28;20600;-60
2023/12/06 11:20:06;;;;;;;8.87;6.23;;;;;;;;;;5047083;28;20358;-59
2023/12/06 11:22:33;;;;;;;10.20;7.40;;;;;;;;;;5047125;28;20618;-59
2023/12/06 11:25:00;;;;;;;8.13;6.53;;;;;;;;;;5047119;28;20219;-59
2023/12/06 11:27:27;;;;;;;7.80;6.80;;;;;;;;;;5047029;28;20582;-60
2023/12/06 11:29:54;;;;;;;6.73;6.03;;;;;;;;;;5046882;28;20881;-59
2023/12/06 11:32:21;;;;;;;7.93;6.30;;;;;;;;;;5046724;28;20231;-60
2023/12/06 11:34:56;;;;;;;10.70;7.40;;;;;;;;;;5046577;28;20230;-60
2023/12/06 11:37:24;;;;;;;10.17;7.50;;;;;;;;;;5046676;28;20223;-60
2023/12/06 11:40:05;;;;;;;10.87;7.47;;;;;;;;;;5046507;28;20208;-60
2023/12/06 11:42:37;;;;;;;12.30;8.33;;;;;;;;;;5046498;28;20215;-60
2023/12/06 11:45:05;;;;;;;10.20;7.10;;;;;;;;;;5046690;28;20204;-60
2023/12/06 11:47:35;;;;;;;7.80;6.67;;;;;;;;;;5046638;28;20215;-60
2023/12/06 11:50:04;;;;;;;8.77;6.93;;;;;;;;;;5046465;28;20230;-60
2023/12/06 11:52:32;;;;;;;8.80;6.40;;;;;;;;;;5046326;28;20242;-61
2023/12/06 11:54:59;;;;;;;6.77;5.97;;;;;;;;;;5046440;28;20819;-60
2023/12/06 11:57:26;;;;;;;6.73;5.73;;;;;;;;;;5046055;28;20211;-60
2023/12/06 11:59:54;;;;;;;9.57;6.60;;;;;;;;;;5046416;28;20222;-60
2023/12/06 12:02:21;;;;;;;8.17;6.33;;;;;;;;;;5046105;28;20211;-60
2023/12/06 12:04:50;;;;;;;7.87;6.23;;;;;;;;;;5045716;28;20211;-61
2023/12/06 12:07:19;;;;;;;6.97;5.97;;;;;;;;;;5046023;28;20208;-60
2023/12/06 12:09:46;;;;;;;9.70;6.23;;;;;;;;;;5046161;28;20207;-61
2023/12/06 12:12:13;;;;;;;9.40;6.70;;;;;;;;;;5046098;28;20208;-60
2023/12/06 12:14:40;;;;;;;7.60;6.23;;;;;;;;;;5045781;28;20222;-60
2023/12/06 12:17:07;;;;;;;8.53;6.30;;;;;;;;;;5045703;28;20286;-60
2023/12/06 12:19:34;;;;;;;7.17;6.47;;;;;;;;;;5045768;28;20676;-60
2023/12/06 12:22:04;;;;;;;6.33;5.70;;;;;;;;;;5045700;28;20220;-60
2023/12/06 12:24:33;;;;;;;7.83;6.00;;;;;;;;;;5045913;28;20207;-60
2023/12/06 12:27:00;;;;;;;7.80;5.90;;;;;;;;;;5045720;28;20211;-60
2023/12/06 12:29:27;;;;;;;8.93;6.93;;;;;;;;;;5045781;28;20215;-60
2023/12/06 12:31:55;;;;;;;9.13;6.43;;;;;;;;;;5045643;28;20215;-60
2023/12/06 12:34:22;;;;;;;7.87;6.07;;;;;;;;;;5030698;28;20232;-60
2023/12/06 12:36:49;;;;;;;8.63;6.77;;;;;;;;;;5038396;28;20617;-60
2023/12/06 12:39:17;;;;;;;8.13;6.43;;;;;;;;;;5032874;28;20205;-60
2023/12/06 12:41:45;;;;;;;8.13;6.23;;;;;;;;;;5025754;28;20745;-60
2023/12/06 12:44:12;;;;;;;6.57;5.60;;;;;;;;;;5040082;28;20204;-60
2023/12/06 12:46:39;;;;;;;6.63;5.20;;;;;;;;;;5044094;28;20212;-60
2023/12/06 12:49:07;;;;;;;6.70;6.03;;;;;;;;;;5043234;28;20277;-60
2023/12/06 12:51:35;;;;;;;7.87;6.13;;;;;;;;;;5045022;28;20218;-60
2023/12/06 12:54:02;;;;;;;6.03;5.33;;;;;;;;;;5033866;28;20278;-60
2023/12/06 12:56:29;;;;;;;7.50;4.77;;;;;;;;;;5044466;28;20254;-61
2023/12/06 12:58:57;;;;;;;28.73;16.50;;;;;;;;;;5039773;28;20262;-60
2023/12/06 13:01:25;;;;;;;991.27;603.23;;;;;;;;;;5025553;28;20211;-60
2023/12/06 13:03:52;;;;;;;34.40;17.10;;;;;;;;;;5041170;28;20219;-60
2023/12/06 13:06:21;;;;;;;5.73;5.13;;;;;;;;;;5043382;28;20211;-60
2023/12/06 13:08:48;;;;;;;6.03;5.43;;;;;;;;;;5034234;28;20212;-64
2023/12/06 13:11:15;;;;;;;5.27;4.60;;;;;;;;;;5032581;28;20662;-60
2023/12/06 13:13:42;;;;;;;5.87;4.90;;;;;;;;;;5045376;28;20238;-65
2023/12/06 13:16:12;;;;;;;5.73;5.13;;;;;;;;;;5044807;28;20334;-61
2023/12/06 13:18:39;;;;;;;5.80;5.13;;;;;;;;;;5042797;28;20298;-61
2023/12/06 13:21:06;;;;;;;4.80;4.30;;;;;;;;;;5045388;28;20212;-62
2023/12/06 13:23:34;;;;;;;4.80;4.40;;;;;;;;;;5037325;28;20224;-60
2023/12/06 13:26:02;;;;;;;4.90;4.50;;;;;;;;;;5025221;28;20307;-59
2023/12/06 13:28:29;;;;;;;5.40;4.90;;;;;;;;;;5037783;28;20199;-60
2023/12/06 13:30:57;;;;;;;4.33;3.93;;;;;;;;;;5044565;28;20302;-61
2023/12/06 13:33:25;;;;;;;5.87;4.80;;;;;;;;;;5044827;28;20308;-61
2023/12/06 13:35:52;;;;;;;6.80;5.70;;;;;;;;;;5045535;28;20211;-66
2023/12/06 13:38:19;;;;;;;5.40;5.00;;;;;;;;;;5042886;28;20208;-61
2023/12/06 13:40:46;;;;;;;5.77;5.17;;;;;;;;;;5041691;28;20204;-61
2023/12/06 13:43:15;;;;;;;9.13;6.10;;;;;;;;;;5043949;28;20204;-61
2023/12/06 13:45:43;;;;;;;35.47;20.33;;;;;;;;;;5042894;28;20204;-59
2023/12/06 13:48:10;;;;;;;102.37;58.50;;;;;;;;;;5043985;28;20204;-61
2023/12/06 13:50:39;;;;;;;36.63;19.20;;;;;;;;;;5038806;28;20216;-61
2023/12/06 13:53:06;;;;;;;36.13;17.50;;;;;;;;;;5027667;28;20219;-59
2023/12/06 13:55:33;;;;;;;18.83;10.83;;;;;;;;;;5042960;28;20208;-61
2023/12/06 13:58:00;;;;;;;8.00;5.77;;;;;;;;;;5044581;28;20218;-61
2023/12/06 14:00:27;;;;;;;8.53;6.40;;;;;;;;;;5031236;28;20695;-61
2023/12/06 14:02:54;;;;;;;7.93;5.27;;;;;;;;;;5032292;28;20386;-61
2023/12/06 14:05:21;;;;;;;11.80;7.03;;;;;;;;;;5027641;28;20208;-61
2023/12/06 14:07:50;;;;;;;18.53;9.23;;;;;;;;;;5031089;28;20204;-61
2023/12/06 14:10:20;;;;;;;15.43;9.43;;;;;;;;;;5038931;28;20868;-61
2023/12/06 14:12:47;;;;;;;13.50;8.83;;;;;;;;;;5033313;28;20216;-61
2023/12/06 14:15:14;;;;;;;16.17;10.23;;;;;;;;;;5038455;28;20215;-61
2023/12/06 14:17:42;;;;;;;14.03;9.13;;;;;;;;;;5044284;28;20343;-60
2023/12/06 14:20:10;;;;;;;12.60;8.77;;;;;;;;;;5041816;28;20553;-60
2023/12/06 14:22:39;;;;;;;11.47;8.20;;;;;;;;;;5027835;28;20216;-61
2023/12/06 14:25:08;;;;;;;12.87;8.40;;;;;;;;;;5037955;28;20912;-61
2023/12/06 14:27:35;;;;;;;12.37;7.80;;;;;;;;;;5028071;28;20610;-60
2023/12/06 14:30:02;;;;;;;9.10;7.03;;;;;;;;;;5029427;28;20204;-65
2023/12/06 14:32:29;;;;;;;8.60;7.53;;;;;;;;;;5046446;28;20261;-62
2023/12/06 14:34:56;;;;;;;214.37;118.17;;;;;;;;;;5043993;28;20239;-63
2023/12/06 14:37:24;;;;;;;664.93;379.90;;;;;;;;;;5045875;28;20211;-62
2023/12/06 14:39:51;;;;;;;38.23;19.97;;;;;;;;;;5047273;28;20583;-64
2023/12/06 14:42:20;;;;;;;11.27;8.37;;;;;;;;;;5047665;28;20215;-62